sensor_id;sensor_type;location;lat;lon;timestamp;pressure;altitude;pressure_sealevel;temperature;humidity
12247;BME280;6186;52.022;4.692;2023-12-04T00:01:46;101356.38;;;2.19;100.00
12247;BME280;6186;52.022;4.692;2023-12-04T00:04:12;101342.53;;;2.20;100.00
12247;BME280;6186;52.022;4.692;2023-12-04T00:06:37;101340.00;;;2.21;100.00
12247;BME280;6186;52.022;4.692;2023-12-04T00:09:03;101341.72;;;2.22;100.00
12247;BME280;6186;52.022;4.692;2023-12-04T00:11:28;101344.34;;;2.24;100.00
12247;BME280;6186;52.022;4.692;2023-12-04T00:13:53;101340.97;;;2.28;100.00
12247;BME280;6186;52.022;4.692;2023-12-04T00:16:18;101337.53;;;2.29;100.00
12247;BME280;6186;52.022;4.692;2023-12-04T00:18:43;101341.03;;;2.31;100.00
12247;BME280;6186;52.022;4.692;2023-12-04T00:21:09;101337.56;;;2.32;100.00
12247;BME280;6186;52.022;4.692;2023-12-04T00:23:34;101335.00;;;2.35;100.00
12247;BME280;6186;52.022;4.692;2023-12-04T00:25:59;101326.38;;;2.36;100.00
12247;BME280;6186;52.022;4.692;2023-12-04T00:28:24;101329.00;;;2.37;100.00
12247;BME280;6186;52.022;4.692;2023-12-04T00:30:49;101323.78;;;2.36;100.00
12247;BME280;6186;52.022;4.692;2023-12-04T00:33:15;101322.91;;;2.35;100.00
12247;BME280;6186;52.022;4.692;2023-12-04T00:35:40;101323.78;;;2.36;100.00
12247;BME280;6186;52.022;4.692;2023-12-04T00:38:05;101323.78;;;2.37;100.00
12247;BME280;6186;52.022;4.692;2023-12-04T00:40:30;101321.19;;;2.37;100.00
12247;BME280;6186;52.022;4.692;2023-12-04T00:42:56;101313.38;;;2.36;100.00
12247;BME280;6186;52.022;4.692;2023-12-04T00:45:21;101314.28;;;2.36;100.00
12247;BME280;6186;52.022;4.692;2023-12-04T00:47:46;101309.03;;;2.35;100.00
12247;BME280;6186;52.022;4.692;2023-12-04T00:50:11;101294.31;;;2.34;100.00
12247;BME280;6186;52.022;4.692;2023-12-04T00:52:36;101304.72;;;2.35;100.00
12247;BME280;6186;52.022;4.692;2023-12-04T00:55:02;101302.97;;;2.33;100.00
12247;BME280;6186;52.022;4.692;2023-12-04T00:57:27;101300.38;;;2.33;100.00
12247;BME280;6186;52.022;4.692;2023-12-04T00:59:52;101287.38;;;2.33;100.00
12247;BME280;6186;52.022;4.692;2023-12-04T01:02:17;101279.53;;;2.31;100.00
12247;BME280;6186;52.022;4.692;2023-12-04T01:04:42;101289.94;;;2.31;100.00
12247;BME280;6186;52.022;4.692;2023-12-04T01:07:08;101288.22;;;2.32;100.00
12247;BME280;6186;52.022;4.692;2023-12-04T01:09:36;101269.13;;;2.28;100.00
12247;BME280;6186;52.022;4.692;2023-12-04T01:12:02;101275.22;;;2.32;100.00
12247;BME280;6186;52.022;4.692;2023-12-04T01:14:27;101272.63;;;2.32;100.00
12247;BME280;6186;52.022;4.692;2023-12-04T01:16:52;101283.06;;;2.35;100.00
12247;BME280;6186;52.022;4.692;2023-12-04T01:19:18;101285.69;;;2.36;100.00
12247;BME280;6186;52.022;4.692;2023-12-04T01:21:43;101273.56;;;2.37;100.00
12247;BME280;6186;52.022;4.692;2023-12-04T01:24:08;101270.13;;;2.38;100.00
12247;BME280;6186;52.022;4.692;2023-12-04T01:26:33;101271.84;;;2.39;100.00
12247;BME280;6186;52.022;4.692;2023-12-04T01:28:59;101261.53;;;2.40;100.00
12247;BME280;6186;52.022;4.692;2023-12-04T01:31:24;101258.94;;;2.42;100.00
12247;BME280;6186;52.022;4.692;2023-12-04T01:33:49;101258.94;;;2.40;100.00
12247;BME280;6186;52.022;4.692;2023-12-04T01:36:14;101259.84;;;2.44;100.00
12247;BME280;6186;52.022;4.692;2023-12-04T01:38:40;101261.56;;;2.45;100.00
12247;BME280;6186;52.022;4.692;2023-12-04T01:41:05;101253.78;;;2.45;100.00
12247;BME280;6186;52.022;4.692;2023-12-04T01:43:30;101249.47;;;2.45;100.00
12247;BME280;6186;52.022;4.692;2023-12-04T01:45:56;101239.94;;;2.46;100.00
12247;BME280;6186;52.022;4.692;2023-12-04T01:48:23;101242.53;;;2.46;100.00
12247;BME280;6186;52.022;4.692;2023-12-04T01:50:49;101234.72;;;2.44;100.00
12247;BME280;6186;52.022;4.692;2023-12-04T01:53:14;101226.97;;;2.46;100.00
12247;BME280;6186;52.022;4.692;2023-12-04T01:55:40;101225.19;;;2.45;100.00
12247;BME280;6186;52.022;4.692;2023-12-04T01:58:06;101229.50;;;2.43;100.00
12247;BME280;6186;52.022;4.692;2023-12-04T02:00:32;101226.03;;;2.42;100.00
12247;BME280;6186;52.022;4.692;2023-12-04T02:02:58;101217.38;;;2.42;100.00
12247;BME280;6186;52.022;4.692;2023-12-04T02:05:24;101206.91;;;2.36;100.00
12247;BME280;6186;52.022;4.692;2023-12-04T02:07:51;101217.41;;;2.43;100.00
12247;BME280;6186;52.022;4.692;2023-12-04T02:10:17;101212.19;;;2.42;100.00
12247;BME280;6186;52.022;4.692;2023-12-04T02:12:42;101213.00;;;2.41;100.00
12247;BME280;6186;52.022;4.692;2023-12-04T02:15:08;101213.00;;;2.41;100.00
12247;BME280;6186;52.022;4.692;2023-12-04T02:17:34;101207.78;;;2.38;100.00
12247;BME280;6186;52.022;4.692;2023-12-04T02:19:59;101202.59;;;2.36;100.00
12247;BME280;6186;52.022;4.692;2023-12-04T02:22:24;101188.72;;;2.36;100.00
12247;BME280;6186;52.022;4.692;2023-12-04T02:24:50;101195.63;;;2.34;100.00
12247;BME280;6186;52.022;4.692;2023-12-04T02:27:17;101186.91;;;2.30;100.00
12247;BME280;6186;52.022;4.692;2023-12-04T02:29:58;101194.72;;;2.33;100.00
12247;BME280;6186;52.022;4.692;2023-12-04T02:32:24;101184.41;;;2.36;100.00
12247;BME280;6186;52.022;4.692;2023-12-04T02:34:54;101182.66;;;2.37;100.00
12247;BME280;6186;52.022;4.692;2023-12-04T02:37:21;101181.84;;;2.39;100.00
12247;BME280;6186;52.022;4.692;2023-12-04T02:39:47;101174.91;;;2.40;100.00
12247;BME280;6186;52.022;4.692;2023-12-04T02:42:13;101177.53;;;2.40;100.00
12247;BME280;6186;52.022;4.692;2023-12-04T02:44:38;101169.72;;;2.40;100.00
12247;BME280;6186;52.022;4.692;2023-12-04T02:47:03;101160.22;;;2.40;100.00
12247;BME280;6186;52.022;4.692;2023-12-04T02:49:28;101168.84;;;2.41;100.00
12247;BME280;6186;52.022;4.692;2023-12-04T02:51:54;101162.81;;;2.40;100.00
12247;BME280;6186;52.022;4.692;2023-12-04T02:54:19;101161.94;;;2.41;100.00
12247;BME280;6186;52.022;4.692;2023-12-04T02:56:44;101154.16;;;2.43;100.00
12247;BME280;6186;52.022;4.692;2023-12-04T02:59:09;101162.81;;;2.42;100.00
12247;BME280;6186;52.022;4.692;2023-12-04T03:01:34;101155.84;;;2.38;100.00
12247;BME280;6186;52.022;4.692;2023-12-04T03:04:00;101149.78;;;2.39;100.00
12247;BME280;6186;52.022;4.692;2023-12-04T03:06:25;101148.06;;;2.38;100.00
12247;BME280;6186;52.022;4.692;2023-12-04T03:08:50;101143.69;;;2.37;100.00
12247;BME280;6186;52.022;4.692;2023-12-04T03:11:15;101136.78;;;2.36;100.00
12247;BME280;6186;52.022;4.692;2023-12-04T03:13:40;101125.50;;;2.35;100.00
12247;BME280;6186;52.022;4.692;2023-12-04T03:16:13;101120.31;;;2.35;100.00
12247;BME280;6186;52.022;4.692;2023-12-04T03:18:39;101114.22;;;2.33;100.00
12247;BME280;6186;52.022;4.692;2023-12-04T03:21:06;101114.22;;;2.35;100.00
12247;BME280;6186;52.022;4.692;2023-12-04T03:23:31;101102.09;;;2.31;100.00
12247;BME280;6186;52.022;4.692;2023-12-04T03:25:56;101102.13;;;2.37;100.00
12247;BME280;6186;52.022;4.692;2023-12-04T03:28:22;101091.75;;;2.37;100.00
12247;BME280;6186;52.022;4.692;2023-12-04T03:30:47;101098.63;;;2.33;100.00
12247;BME280;6186;52.022;4.692;2023-12-04T03:33:12;101083.03;;;2.30;100.00
12247;BME280;6186;52.022;4.692;2023-12-04T03:35:37;101083.94;;;2.32;100.00
12247;BME280;6186;52.022;4.692;2023-12-04T03:38:02;101086.50;;;2.31;100.00
12247;BME280;6186;52.022;4.692;2023-12-04T03:40:28;101087.34;;;2.28;100.00
12247;BME280;6186;52.022;4.692;2023-12-04T03:42:53;101080.44;;;2.29;100.00
12247;BME280;6186;52.022;4.692;2023-12-04T03:45:18;101075.22;;;2.29;100.00
12247;BME280;6186;52.022;4.692;2023-12-04T03:47:43;101080.44;;;2.29;100.00
12247;BME280;6186;52.022;4.692;2023-12-04T03:50:09;101069.16;;;2.28;100.00
12247;BME280;6186;52.022;4.692;2023-12-04T03:52:34;101067.38;;;2.26;100.00
12247;BME280;6186;52.022;4.692;2023-12-04T03:54:59;101065.69;;;2.28;100.00
12247;BME280;6186;52.022;4.692;2023-12-04T03:57:24;101061.34;;;2.27;100.00
12247;BME280;6186;52.022;4.692;2023-12-04T03:59:50;101059.66;;;2.29;100.00
12247;BME280;6186;52.022;4.692;2023-12-04T04:02:15;101057.91;;;2.29;100.00
12247;BME280;6186;52.022;4.692;2023-12-04T04:04:40;101052.72;;;2.29;100.00
12247;BME280;6186;52.022;4.692;2023-12-04T04:07:05;101046.66;;;2.29;100.00
12247;BME280;6186;52.022;4.692;2023-12-04T04:09:30;101044.91;;;2.28;100.00
12247;BME280;6186;52.022;4.692;2023-12-04T04:11:56;101045.78;;;2.27;100.00
12247;BME280;6186;52.022;4.692;2023-12-04T04:14:21;101044.00;;;2.26;100.00
12247;BME280;6186;52.022;4.692;2023-12-04T04:16:46;101040.56;;;2.25;100.00
12247;BME280;6186;52.022;4.692;2023-12-04T04:19:11;101035.34;;;2.24;100.00
12247;BME280;6186;52.022;4.692;2023-12-04T04:21:40;101037.09;;;2.23;100.00
12247;BME280;6186;52.022;4.692;2023-12-04T04:24:05;101035.31;;;2.22;100.00
12247;BME280;6186;52.022;4.692;2023-12-04T04:26:30;101032.72;;;2.24;100.00
12247;BME280;6186;52.022;4.692;2023-12-04T04:28:55;101026.72;;;2.26;100.00
12247;BME280;6186;52.022;4.692;2023-12-04T04:31:21;101023.25;;;2.27;100.00
12247;BME280;6186;52.022;4.692;2023-12-04T04:33:46;101023.25;;;2.27;100.00
12247;BME280;6186;52.022;4.692;2023-12-04T04:36:11;101015.47;;;2.27;100.00
12247;BME280;6186;52.022;4.692;2023-12-04T04:38:36;101015.44;;;2.26;100.00
12247;BME280;6186;52.022;4.692;2023-12-04T04:41:02;101019.00;;;2.31;100.00
12247;BME280;6186;52.022;4.692;2023-12-04T04:43:27;101022.44;;;2.31;100.00
12247;BME280;6186;52.022;4.692;2023-12-04T04:45:52;101023.31;;;2.33;100.00
12247;BME280;6186;52.022;4.692;2023-12-04T04:48:17;101012.94;;;2.35;100.00
12247;BME280;6186;52.022;4.692;2023-12-04T04:50:42;101021.63;;;2.35;100.00
12247;BME280;6186;52.022;4.692;2023-12-04T04:53:08;101013.00;;;2.36;100.00
12247;BME280;6186;52.022;4.692;2023-12-04T04:55:33;101006.91;;;2.36;100.00
12247;BME280;6186;52.022;4.692;2023-12-04T04:57:58;100996.53;;;2.36;100.00
12247;BME280;6186;52.022;4.692;2023-12-04T05:00:23;100996.53;;;2.37;100.00
12247;BME280;6186;52.022;4.692;2023-12-04T05:02:49;100993.03;;;2.34;100.00
12247;BME280;6186;52.022;4.692;2023-12-04T05:05:14;100987.84;;;2.35;100.00
12247;BME280;6186;52.022;4.692;2023-12-04T05:07:39;100987.84;;;2.34;100.00
12247;BME280;6186;52.022;4.692;2023-12-04T05:10:05;100991.34;;;2.36;100.00
12247;BME280;6186;52.022;4.692;2023-12-04T05:12:30;100976.63;;;2.36;100.00
12247;BME280;6186;52.022;4.692;2023-12-04T05:14:55;100980.06;;;2.35;100.00
12247;BME280;6186;52.022;4.692;2023-12-04T05:17:20;100975.75;;;2.37;100.00
12247;BME280;6186;52.022;4.692;2023-12-04T05:19:45;100967.97;;;2.37;100.00
12247;BME280;6186;52.022;4.692;2023-12-04T05:22:11;100974.03;;;2.38;100.00
12247;BME280;6186;52.022;4.692;2023-12-04T05:24:36;100970.56;;;2.39;100.00
12247;BME280;6186;52.022;4.692;2023-12-04T05:27:02;100963.66;;;2.41;100.00
12247;BME280;6186;52.022;4.692;2023-12-04T05:29:27;100973.22;;;2.42;100.00
12247;BME280;6186;52.022;4.692;2023-12-04T05:31:52;100959.41;;;2.46;100.00
12247;BME280;6186;52.022;4.692;2023-12-04T05:34:17;100958.53;;;2.47;100.00
12247;BME280;6186;52.022;4.692;2023-12-04T05:36:42;100962.03;;;2.49;100.00
12247;BME280;6186;52.022;4.692;2023-12-04T05:39:08;100953.34;;;2.50;100.00
12247;BME280;6186;52.022;4.692;2023-12-04T05:41:33;100944.72;;;2.48;100.00
12247;BME280;6186;52.022;4.692;2023-12-04T05:43:58;100941.25;;;2.49;100.00
12247;BME280;6186;52.022;4.692;2023-12-04T05:46:23;100945.56;;;2.50;100.00
12247;BME280;6186;52.022;4.692;2023-12-04T05:48:49;100943.84;;;2.50;100.00
12247;BME280;6186;52.022;4.692;2023-12-04T05:51:14;100936.06;;;2.52;100.00
12247;BME280;6186;52.022;4.692;2023-12-04T05:53:39;100935.22;;;2.51;100.00
12247;BME280;6186;52.022;4.692;2023-12-04T05:56:05;100937.81;;;2.53;100.00
12247;BME280;6186;52.022;4.692;2023-12-04T05:58:30;100934.34;;;2.54;100.00
12247;BME280;6186;52.022;4.692;2023-12-04T06:00:55;100941.28;;;2.55;100.00
12247;BME280;6186;52.022;4.692;2023-12-04T06:03:21;100956.00;;;2.54;100.00
12247;BME280;6186;52.022;4.692;2023-12-04T06:05:46;100946.50;;;2.55;100.00
12247;BME280;6186;52.022;4.692;2023-12-04T06:08:11;100950.81;;;2.56;100.00
12247;BME280;6186;52.022;4.692;2023-12-04T06:10:36;100943.03;;;2.54;100.00
12247;BME280;6186;52.022;4.692;2023-12-04T06:13:02;100941.28;;;2.55;100.00
12247;BME280;6186;52.022;4.692;2023-12-04T06:15:27;100930.91;;;2.55;100.00
12247;BME280;6186;52.022;4.692;2023-12-04T06:17:52;100931.75;;;2.54;100.00
12247;BME280;6186;52.022;4.692;2023-12-04T06:20:17;100930.03;;;2.56;100.00
12247;BME280;6186;52.022;4.692;2023-12-04T06:22:43;100935.22;;;2.56;100.00
12247;BME280;6186;52.022;4.692;2023-12-04T06:25:08;100924.84;;;2.56;100.00
12247;BME280;6186;52.022;4.692;2023-12-04T06:27:34;100917.09;;;2.59;100.00
12247;BME280;6186;52.022;4.692;2023-12-04T06:29:59;100916.22;;;2.60;100.00
12247;BME280;6186;52.022;4.692;2023-12-04T06:32:25;100913.63;;;2.60;100.00
12247;BME280;6186;52.022;4.692;2023-12-04T06:34:50;100913.66;;;2.63;100.00
12247;BME280;6186;52.022;4.692;2023-12-04T06:37:16;100887.56;;;2.49;100.00
12247;BME280;6186;52.022;4.692;2023-12-04T06:39:42;100896.34;;;2.65;100.00
12247;BME280;6186;52.022;4.692;2023-12-04T06:42:09;100895.47;;;2.63;100.00
12247;BME280;6186;52.022;4.692;2023-12-04T06:44:35;100892.88;;;2.63;100.00
12247;BME280;6186;52.022;4.692;2023-12-04T06:47:01;100892.91;;;2.69;100.00
12247;BME280;6186;52.022;4.692;2023-12-04T06:49:30;100896.38;;;2.69;100.00
12247;BME280;6186;52.022;4.692;2023-12-04T06:51:55;100873.81;;;2.64;100.00
12247;BME280;6186;52.022;4.692;2023-12-04T06:54:21;100879.91;;;2.66;100.00
12247;BME280;6186;52.022;4.692;2023-12-04T06:56:46;100882.53;;;2.72;100.00
12247;BME280;6186;52.022;4.692;2023-12-04T06:59:11;100883.41;;;2.72;100.00
12247;BME280;6186;52.022;4.692;2023-12-04T07:01:36;100890.34;;;2.73;100.00
12247;BME280;6186;52.022;4.692;2023-12-04T07:04:02;100887.75;;;2.73;100.00
12247;BME280;6186;52.022;4.692;2023-12-04T07:06:27;100896.41;;;2.74;100.00
12247;BME280;6186;52.022;4.692;2023-12-04T07:08:52;100889.50;;;2.76;100.00
12247;BME280;6186;52.022;4.692;2023-12-04T07:11:17;100890.34;;;2.76;100.00
12247;BME280;6186;52.022;4.692;2023-12-04T07:13:42;100885.19;;;2.78;100.00
12247;BME280;6186;52.022;4.692;2023-12-04T07:16:08;100883.44;;;2.77;100.00
12247;BME280;6186;52.022;4.692;2023-12-04T07:18:33;100876.50;;;2.77;100.00
12247;BME280;6186;52.022;4.692;2023-12-04T07:20:59;100880.00;;;2.78;100.00
12247;BME280;6186;52.022;4.692;2023-12-04T07:23:24;100880.88;;;2.80;100.00
12247;BME280;6186;52.022;4.692;2023-12-04T07:25:49;100870.47;;;2.81;100.00
12247;BME280;6186;52.022;4.692;2023-12-04T07:28:14;100875.69;;;2.83;100.00
12247;BME280;6186;52.022;4.692;2023-12-04T07:30:40;100866.16;;;2.83;100.00
12247;BME280;6186;52.022;4.692;2023-12-04T07:33:05;100868.75;;;2.83;100.00
12247;BME280;6186;52.022;4.692;2023-12-04T07:35:30;100865.28;;;2.84;100.00
12247;BME280;6186;52.022;4.692;2023-12-04T07:37:55;100870.50;;;2.86;100.00
12247;BME280;6186;52.022;4.692;2023-12-04T07:40:20;100864.44;;;2.87;100.00
12247;BME280;6186;52.022;4.692;2023-12-04T07:42:46;100857.53;;;2.88;100.00
12247;BME280;6186;52.022;4.692;2023-12-04T07:45:11;100857.53;;;2.88;100.00
12247;BME280;6186;52.022;4.692;2023-12-04T07:47:36;100866.22;;;2.90;100.00
12247;BME280;6186;52.022;4.692;2023-12-04T07:50:02;100863.56;;;2.88;100.00
12247;BME280;6186;52.022;4.692;2023-12-04T07:52:27;100866.16;;;2.86;100.00
12247;BME280;6186;52.022;4.692;2023-12-04T07:54:52;100862.69;;;2.86;100.00
12247;BME280;6186;52.022;4.692;2023-12-04T07:57:19;100865.28;;;2.86;100.00
12247;BME280;6186;52.022;4.692;2023-12-04T07:59:44;100848.84;;;2.85;100.00
12247;BME280;6186;52.022;4.692;2023-12-04T08:02:09;100840.13;;;2.82;100.00
12247;BME280;6186;52.022;4.692;2023-12-04T08:04:34;100850.56;;;2.86;100.00
12247;BME280;6186;52.022;4.692;2023-12-04T08:06:59;100852.34;;;2.88;100.00
12247;BME280;6186;52.022;4.692;2023-12-04T08:09:28;100846.25;;;2.87;100.00
12247;BME280;6186;52.022;4.692;2023-12-04T08:11:53;100874.81;;;2.84;100.00
12247;BME280;6186;52.022;4.692;2023-12-04T08:14:18;100866.16;;;2.85;100.00
12247;BME280;6186;52.022;4.692;2023-12-04T08:16:43;100870.50;;;2.86;100.00
12247;BME280;6186;52.022;4.692;2023-12-04T08:19:09;100869.66;;;2.85;100.00
12247;BME280;6186;52.022;4.692;2023-12-04T08:21:34;100865.31;;;2.88;100.00
12247;BME280;6186;52.022;4.692;2023-12-04T08:23:59;100861.84;;;2.88;100.00
12247;BME280;6186;52.022;4.692;2023-12-04T08:26:25;100861.00;;;2.91;100.00
12247;BME280;6186;52.022;4.692;2023-12-04T08:28:51;100850.63;;;2.90;100.00
12247;BME280;6186;52.022;4.692;2023-12-04T08:31:16;100843.66;;;2.92;100.00
12247;BME280;6186;52.022;4.692;2023-12-04T08:33:42;100836.75;;;2.89;100.00
12247;BME280;6186;52.022;4.692;2023-12-04T08:36:07;100840.22;;;2.96;100.00
12247;BME280;6186;52.022;4.692;2023-12-04T08:38:32;100824.63;;;2.91;100.00
12247;BME280;6186;52.022;4.692;2023-12-04T08:40:58;100830.69;;;2.96;100.00
12247;BME280;6186;52.022;4.692;2023-12-04T08:43:23;100833.31;;;2.99;100.00
12247;BME280;6186;52.022;4.692;2023-12-04T08:45:48;100831.59;;;3.01;100.00
12247;BME280;6186;52.022;4.692;2023-12-04T08:48:13;100822.06;;;3.02;100.00
12247;BME280;6186;52.022;4.692;2023-12-04T08:50:38;100817.75;;;3.05;100.00
12247;BME280;6186;52.022;4.692;2023-12-04T08:53:04;100808.22;;;3.03;100.00
12247;BME280;6186;52.022;4.692;2023-12-04T08:55:29;100798.69;;;3.06;100.00
12247;BME280;6186;52.022;4.692;2023-12-04T08:57:55;100799.53;;;3.05;100.00
12247;BME280;6186;52.022;4.692;2023-12-04T09:00:20;100803.91;;;3.05;100.00
12247;BME280;6186;52.022;4.692;2023-12-04T09:02:49;100799.53;;;3.05;100.00
12247;BME280;6186;52.022;4.692;2023-12-04T09:05:14;100799.53;;;3.05;100.00
12247;BME280;6186;52.022;4.692;2023-12-04T09:07:40;100800.41;;;3.06;100.00
12247;BME280;6186;52.022;4.692;2023-12-04T09:10:05;100797.81;;;3.04;100.00
12247;BME280;6186;52.022;4.692;2023-12-04T09:12:31;100796.09;;;3.05;100.00
12247;BME280;6186;52.022;4.692;2023-12-04T09:14:56;100801.28;;;3.06;100.00
12247;BME280;6186;52.022;4.692;2023-12-04T09:17:21;100797.81;;;3.07;100.00
12247;BME280;6186;52.022;4.692;2023-12-04T09:19:46;100802.19;;;3.08;100.00
12247;BME280;6186;52.022;4.692;2023-12-04T09:22:11;100798.72;;;3.12;100.00
12247;BME280;6186;52.022;4.692;2023-12-04T09:24:37;100795.25;;;3.12;100.00
12247;BME280;6186;52.022;4.692;2023-12-04T09:27:02;100797.00;;;3.16;100.00
12247;BME280;6186;52.022;4.692;2023-12-04T09:29:27;100798.72;;;3.17;100.00
12247;BME280;6186;52.022;4.692;2023-12-04T09:31:52;100803.94;;;3.18;100.00
12247;BME280;6186;52.022;4.692;2023-12-04T09:34:18;100811.72;;;3.18;100.00
12247;BME280;6186;52.022;4.692;2023-12-04T09:36:43;100806.53;;;3.18;100.00
12247;BME280;6186;52.022;4.692;2023-12-04T09:39:08;100803.94;;;3.17;100.00
12247;BME280;6186;52.022;4.692;2023-12-04T09:41:34;100806.53;;;3.18;100.00
12247;BME280;6186;52.022;4.692;2023-12-04T09:43:59;100796.16;;;3.20;100.00
12247;BME280;6186;52.022;4.692;2023-12-04T09:46:24;100800.47;;;3.22;100.00
12247;BME280;6186;52.022;4.692;2023-12-04T09:48:51;100796.16;;;3.24;100.00
12247;BME280;6186;52.022;4.692;2023-12-04T09:51:18;100784.03;;;3.25;100.00
12247;BME280;6186;52.022;4.692;2023-12-04T09:53:47;100786.63;;;3.26;100.00
12247;BME280;6186;52.022;4.692;2023-12-04T09:56:14;100778.81;;;3.28;100.00
12247;BME280;6186;52.022;4.692;2023-12-04T09:58:41;100778.81;;;3.26;100.00
12247;BME280;6186;52.022;4.692;2023-12-04T10:01:08;100772.78;;;3.30;100.00
12247;BME280;6186;52.022;4.692;2023-12-04T10:03:35;100772.78;;;3.32;100.00
12247;BME280;6186;52.022;4.692;2023-12-04T10:06:00;100772.78;;;3.32;100.00
12247;BME280;6186;52.022;4.692;2023-12-04T10:08:25;100758.06;;;3.29;100.00
12247;BME280;6186;52.022;4.692;2023-12-04T10:10:51;100758.88;;;3.31;100.00
12247;BME280;6186;52.022;4.692;2023-12-04T10:13:16;100758.91;;;3.36;100.00
12247;BME280;6186;52.022;4.692;2023-12-04T10:15:48;100743.31;;;3.36;100.00
12247;BME280;6186;52.022;4.692;2023-12-04T10:18:27;100745.06;;;3.40;100.00
12247;BME280;6186;52.022;4.692;2023-12-04T10:20:54;100737.28;;;3.44;100.00
12247;BME280;6186;52.022;4.692;2023-12-04T10:23:19;100744.19;;;3.48;100.00
12247;BME280;6186;52.022;4.692;2023-12-04T10:25:44;100726.88;;;3.47;100.00
12247;BME280;6186;52.022;4.692;2023-12-04T10:28:12;100725.16;;;3.55;100.00
12247;BME280;6186;52.022;4.692;2023-12-04T10:30:38;100713.84;;;3.55;100.00
12247;BME280;6186;52.022;4.692;2023-12-04T10:33:05;100719.94;;;3.58;100.00
12247;BME280;6186;52.022;4.692;2023-12-04T10:35:32;100711.25;;;3.56;100.00
12247;BME280;6186;52.022;4.692;2023-12-04T10:37:57;100704.31;;;3.52;100.00
12247;BME280;6186;52.022;4.692;2023-12-04T10:40:24;100710.38;;;3.56;100.00
12247;BME280;6186;52.022;4.692;2023-12-04T10:42:50;100696.50;;;3.57;100.00
12247;BME280;6186;52.022;4.692;2023-12-04T10:45:15;100696.50;;;3.57;100.00
12247;BME280;6186;52.022;4.692;2023-12-04T10:47:40;100690.44;;;3.58;100.00
12247;BME280;6186;52.022;4.692;2023-12-04T10:50:06;100673.09;;;3.52;100.00
12247;BME280;6186;52.022;4.692;2023-12-04T10:52:31;100682.66;;;3.61;100.00
12247;BME280;6186;52.022;4.692;2023-12-04T10:54:57;100682.63;;;3.62;100.00
12247;BME280;6186;52.022;4.692;2023-12-04T10:57:27;100673.97;;;3.62;100.00
12247;BME280;6186;52.022;4.692;2023-12-04T10:59:57;100651.41;;;3.53;100.00
12247;BME280;6186;52.022;4.692;2023-12-04T11:02:25;100651.41;;;3.55;100.00
12247;BME280;6186;52.022;4.692;2023-12-04T11:04:55;100659.22;;;3.58;100.00
12247;BME280;6186;52.022;4.692;2023-12-04T11:07:24;100668.75;;;3.63;100.00
12247;BME280;6186;52.022;4.692;2023-12-04T11:09:50;100667.91;;;3.64;100.00
12247;BME280;6186;52.022;4.692;2023-12-04T11:12:18;100654.00;;;3.62;100.00
12247;BME280;6186;52.022;4.692;2023-12-04T11:14:52;100652.28;;;3.64;100.00
12247;BME280;6186;52.022;4.692;2023-12-04T11:17:19;100647.06;;;3.64;100.00
12247;BME280;6186;52.022;4.692;2023-12-04T11:20:24;100653.13;;;3.69;100.00
12247;BME280;6186;52.022;4.692;2023-12-04T11:22:53;100649.69;;;3.72;100.00
12247;BME280;6186;52.022;4.692;2023-12-04T11:25:19;100655.75;;;3.72;100.00
12247;BME280;6186;52.022;4.692;2023-12-04T11:27:44;100649.66;;;3.73;100.00
12247;BME280;6186;52.022;4.692;2023-12-04T11:30:11;100641.88;;;3.70;100.00
12247;BME280;6186;52.022;4.692;2023-12-04T11:32:44;100638.38;;;3.71;100.00
12247;BME280;6186;52.022;4.692;2023-12-04T11:35:14;100645.34;;;3.75;100.00
12247;BME280;6186;52.022;4.692;2023-12-04T11:37:41;100649.69;;;3.76;100.00
12247;BME280;6186;52.022;4.692;2023-12-04T11:40:07;100640.97;;;3.73;100.00
12247;BME280;6186;52.022;4.692;2023-12-04T11:42:33;100640.09;;;3.78;100.00
12247;BME280;6186;52.022;4.692;2023-12-04T11:44:58;100639.25;;;3.79;100.00
12247;BME280;6186;52.022;4.692;2023-12-04T11:47:24;100640.13;;;3.83;100.00
12247;BME280;6186;52.022;4.692;2023-12-04T11:49:49;100620.16;;;3.79;100.00
12247;BME280;6186;52.022;4.692;2023-12-04T11:52:15;100627.97;;;3.83;100.00
12247;BME280;6186;52.022;4.692;2023-12-04T11:55:00;100617.56;;;3.82;100.00
12247;BME280;6186;52.022;4.692;2023-12-04T11:57:26;100626.22;;;3.82;100.00
12247;BME280;6186;52.022;4.692;2023-12-04T11:59:52;100621.00;;;3.82;100.00
12247;BME280;6186;52.022;4.692;2023-12-04T12:02:17;100618.41;;;3.82;100.00
12247;BME280;6186;52.022;4.692;2023-12-04T12:04:43;100610.59;;;3.82;100.00
12247;BME280;6186;52.022;4.692;2023-12-04T12:07:09;100604.56;;;3.82;100.00
12247;BME280;6186;52.022;4.692;2023-12-04T12:09:34;100596.75;;;3.83;100.00
12247;BME280;6186;52.022;4.692;2023-12-04T12:12:01;100592.38;;;3.90;100.00
12247;BME280;6186;52.022;4.692;2023-12-04T12:14:26;100588.88;;;3.94;100.00
12247;BME280;6186;52.022;4.692;2023-12-04T12:16:54;100581.97;;;3.93;100.00
12247;BME280;6186;52.022;4.692;2023-12-04T12:19:19;100578.47;;;3.94;100.00
12247;BME280;6186;52.022;4.692;2023-12-04T12:21:44;100568.97;;;3.92;100.00
12247;BME280;6186;52.022;4.692;2023-12-04T12:24:11;100569.84;;;3.86;100.00
12247;BME280;6186;52.022;4.692;2023-12-04T12:26:37;100560.25;;;3.88;100.00
12247;BME280;6186;52.022;4.692;2023-12-04T12:29:02;100557.66;;;3.91;100.00
12247;BME280;6186;52.022;4.692;2023-12-04T12:31:28;100542.91;;;3.90;100.00
12247;BME280;6186;52.022;4.692;2023-12-04T12:33:55;100544.66;;;3.90;100.00
12247;BME280;6186;52.022;4.692;2023-12-04T12:36:20;100545.53;;;3.89;100.00
12247;BME280;6186;52.022;4.692;2023-12-04T12:38:46;100542.03;;;3.88;100.00
12247;BME280;6186;52.022;4.692;2023-12-04T12:41:11;100534.22;;;3.88;100.00
12247;BME280;6186;52.022;4.692;2023-12-04T12:43:37;100534.25;;;3.87;100.00
12247;BME280;6186;52.022;4.692;2023-12-04T12:46:02;100536.84;;;3.87;100.00
12247;BME280;6186;52.022;4.692;2023-12-04T12:48:27;100535.97;;;3.89;100.00
12247;BME280;6186;52.022;4.692;2023-12-04T12:50:54;100536.84;;;3.90;100.00
12247;BME280;6186;52.022;4.692;2023-12-04T12:53:20;100535.97;;;3.91;100.00